ADDS METAR Data INFO
IDs: Format: Raw Decoded Include TAF

Data at: 0215 UTC 14 Dec 2017

KHVN 140153Z 28011G15KT 10SM CLR M03/M14 A2963 RMK AO2 SLP034 T10281139
KHVN 140053Z 26009G17KT 10SM CLR M02/M15 A2964 RMK AO2 SLP035 T10221150
KHVN 132353Z VRB06KT 10SM CLR M02/M14 A2962 RMK AO2 SLP030 T10221144 11017 21028 53023
KHVN 132253Z 28009G16KT 10SM CLR M02/M14 A2959 RMK AO2 SLP021 T10221139
KHVN 132153Z 29009G14KT 260V330 10SM CLR M02/M14 A2957 RMK AO2 SLP014 T10221139
KHVN 132053Z 30012G23KT 10SM CLR M02/M14 A2955 RMK AO2 SLP007 T10221139 53026
KHVN 131953Z 30016G26KT 10SM SCT050 M02/M13 A2952 RMK AO2 PK WND 30029/1923 SLP994 T10221133
KHVN 131853Z 30015G25KT 260V320 10SM SCT050 M02/M13 A2949 RMK AO2 PK WND 30035/1806 SLP985 T10221128
KHVN 131753Z 29014G27KT 10SM BKN050 BKN060 M03/M13 A2948 RMK AO2 PK WND 30031/1654 SLP981 T10281133 11028 21061 55003
KHVN 131653Z 30018G32KT 10SM SCT050 M04/M14 A2946 RMK AO2 PK WND 30032/1653 SLP976 T10391139
KHVN 131553Z 29011G29KT 10SM SCT050 BKN200 M04/M14 A2947 RMK AO2 PK WND 31029/1549 SLP980 T10441144
KHVN 131453Z 29014G24KT 10SM FEW050 BKN060 OVC080 M05/M14 A2948 RMK AO2 PK WND 28026/1404 SLP984 T10501144 51016
KHVN 131353Z 30015G23KT 10SM SCT050 SCT120 M05/M14 A2948 RMK AO2 PK WND 30027/1324 SLP981 T10501144
KHVN 131253Z 28011G20KT 10SM FEW050 M06/M14 A2945 RMK AO2 SLP974 T10561139
KHVN 131153Z 28011G21KT 10SM FEW050 M06/M14 A2944 RMK AO2 PK WND 30026/1105 SLP968 70003 T10561139 10000 21061 53008
KHVN 131053Z 29012G21KT 10SM CLR M06/M14 A2942 RMK AO2 PK WND 28026/1013 SLP963 T10561139
KHVN 130953Z AUTO 28015G24KT 10SM FEW060 M05/M14 A2941 RMK AO2 PK WND 30028/0909 SLP958 T10501139
KHVN 130853Z AUTO 28012G23KT 10SM OVC055 M04/M13 A2941 RMK AO2 PK WND 30027/0829 SLP960 T10391128 50006
KHVN 130753Z AUTO 28013G22KT 10SM OVC049 M02/M11 A2942 RMK AO2 PK WND 29027/0734 SLP963 T10221111
KHVN 130653Z AUTO 31009KT 10SM OVC034 M01/M08 A2941 RMK AO2 SLP960 T10111083
KHVN 130553Z AUTO 32013KT 10SM BKN032 BKN040 OVC048 00/M07 A2939 RMK AO2 SLP953 T00001072 10050 20000 50004
KHVN 130453Z AUTO 34007KT 10SM OVC032 01/M06 A2942 RMK AO2 SLP960 T00061061 401060006
KHVN 130353Z AUTO 33010G15KT 10SM FEW030 SCT037 01/M06 A2940 RMK AO2 SLP954 T00111061
KHVN 130253Z 35012G19KT 10SM BKN036 OVC043 02/M04 A2938 RMK AO2 PRESFR SLP949 T00171044 55001
KHVN 130234Z 32011G25KT 10SM FEW017 FEW029 OVC036 02/M04 A2941 RMK AO2 T00221039
KHVN 130153Z 31009G22KT 10SM FEW020 BKN028 OVC046 04/01 A2936 RMK AO2 SLP942 T00390006
KHVN 130133Z 31011G19KT 10SM BKN028 BKN055 OVC070 04/01 A2936 RMK AO2 T00440011
KHVN 130053Z 32008KT 10SM SCT050 BKN070 04/02 A2938 RMK AO2 SLP948 T00440017
KHVN 122353Z COR 29010KT 10SM BKN055 OVC070 05/02 A2939 RMK AO2 SLP950 60001 T00500017 10106 20050 58001
KHVN 122253Z VRB05KT 10SM OVC041 06/02 A2940 RMK AO2 SLP954 T00560022
KHVN 122153Z 33009G15KT 10SM BKN016 OVC095 06/02 A2939 RMK AO2 SLP951 T00560022
KHVN 122141Z 31008G14KT 10SM BKN016 BKN090 OVC100 06/02 A2939 RMK AO2 T00560022
KHVN 122053Z 31007KT 10SM SCT043 BKN120 07/03 A2939 RMK AO2 RAE1957 SLP951 P0000 60001 T00670033 56019
KHVN 122000Z 30008KT 10SM FEW012 OVC035 08/05 A2940 RMK AO2 RAE1957 P0000 T00780050
KHVN 121953Z 29007KT 6SM -RA BKN027 OVC037 08/06 A2940 RMK AO2 RAB04 SLP954 P0001 T00830056
KHVN 121932Z 22008KT 6SM -RA BKN027 OVC037 09/06 A2939 RMK AO2 RAB04 P0001 T00940061
KHVN 121853Z 19007KT 10SM SCT036 OVC047 10/07 A2940 RMK AO2 SLP956 T01000067
KHVN 121753Z 15006KT 10SM SCT024 BKN055 OVC075 10/07 A2944 RMK AO2 SLP970 60002 T01000072 10100 20072 56058
KHVN 121653Z 16007KT 10SM SCT055 OVC075 09/07 A2950 RMK AO2 PRESFR SLP989 T00940067
KHVN 121553Z 14009KT 10SM SCT024 BKN044 OVC055 09/06 A2956 RMK AO2 RAE1459B24E39 SLP009 P0001 T00890061
KHVN 121453Z 14010KT 5SM -RA BR SCT023 BKN033 OVC080 08/04 A2962 RMK AO2 RAE00B35 SLP028 P0001 60001 T00780044 56043